sensor_id;sensor_type;location;lat;lon;timestamp;temperature;humidity
63317;DHT22;49822;41.468;13.560;2022-12-01T00:01:24;5.90;78.50
63317;DHT22;49822;41.468;13.560;2022-12-01T00:03:53;6.00;77.60
63317;DHT22;49822;41.468;13.560;2022-12-01T00:06:20;6.10;77.10
63317;DHT22;49822;41.468;13.560;2022-12-01T00:08:49;6.20;77.30
63317;DHT22;49822;41.468;13.560;2022-12-01T00:11:41;6.40;78.40
63317;DHT22;49822;41.468;13.560;2022-12-01T00:14:08;6.40;76.40
63317;DHT22;49822;41.468;13.560;2022-12-01T00:16:35;6.40;77.00
63317;DHT22;49822;41.468;13.560;2022-12-01T00:19:03;6.30;77.70
63317;DHT22;49822;41.468;13.560;2022-12-01T00:21:32;6.40;77.50
63317;DHT22;49822;41.468;13.560;2022-12-01T00:24:00;6.40;77.00
63317;DHT22;49822;41.468;13.560;2022-12-01T00:26:28;6.20;76.10
63317;DHT22;49822;41.468;13.560;2022-12-01T00:28:57;5.70;77.70
63317;DHT22;49822;41.468;13.560;2022-12-01T00:31:25;5.50;79.60
63317;DHT22;49822;41.468;13.560;2022-12-01T00:33:53;5.50;81.20
63317;DHT22;49822;41.468;13.560;2022-12-01T00:36:21;5.60;80.50
63317;DHT22;49822;41.468;13.560;2022-12-01T00:38:55;5.60;80.60
63317;DHT22;49822;41.468;13.560;2022-12-01T00:41:24;5.60;79.70
63317;DHT22;49822;41.468;13.560;2022-12-01T00:43:52;5.70;80.60
63317;DHT22;49822;41.468;13.560;2022-12-01T00:46:20;5.90;80.80
63317;DHT22;49822;41.468;13.560;2022-12-01T00:48:48;6.10;80.50
63317;DHT22;49822;41.468;13.560;2022-12-01T00:51:15;6.10;78.70
63317;DHT22;49822;41.468;13.560;2022-12-01T00:53:42;6.00;79.60
63317;DHT22;49822;41.468;13.560;2022-12-01T00:56:10;5.90;79.30
63317;DHT22;49822;41.468;13.560;2022-12-01T00:58:37;5.90;80.30
63317;DHT22;49822;41.468;13.560;2022-12-01T01:01:05;6.00;80.10
63317;DHT22;49822;41.468;13.560;2022-12-01T01:03:33;6.10;79.60
63317;DHT22;49822;41.468;13.560;2022-12-01T01:06:09;6.00;78.40
63317;DHT22;49822;41.468;13.560;2022-12-01T01:08:38;5.50;80.00
63317;DHT22;49822;41.468;13.560;2022-12-01T01:11:05;5.30;80.90
63317;DHT22;49822;41.468;13.560;2022-12-01T01:13:34;5.40;81.60
63317;DHT22;49822;41.468;13.560;2022-12-01T01:18:35;5.70;81.60
63317;DHT22;49822;41.468;13.560;2022-12-01T01:21:06;5.90;81.10
63317;DHT22;49822;41.468;13.560;2022-12-01T01:23:36;5.70;78.70
63317;DHT22;49822;41.468;13.560;2022-12-01T01:26:14;5.70;80.10
63317;DHT22;49822;41.468;13.560;2022-12-01T01:28:43;5.70;80.20
63317;DHT22;49822;41.468;13.560;2022-12-01T01:31:13;5.90;80.30
63317;DHT22;49822;41.468;13.560;2022-12-01T01:33:42;6.00;80.00
63317;DHT22;49822;41.468;13.560;2022-12-01T01:36:09;6.00;79.30
63317;DHT22;49822;41.468;13.560;2022-12-01T01:38:38;5.60;77.50
63317;DHT22;49822;41.468;13.560;2022-12-01T01:41:06;5.10;79.40
63317;DHT22;49822;41.468;13.560;2022-12-01T01:46:21;4.90;82.70
63317;DHT22;49822;41.468;13.560;2022-12-01T01:54:08;5.30;82.50
63317;DHT22;49822;41.468;13.560;2022-12-01T01:56:43;5.50;81.90
63317;DHT22;49822;41.468;13.560;2022-12-01T01:59:15;5.70;81.60
63317;DHT22;49822;41.468;13.560;2022-12-01T02:01:46;5.80;81.00
63317;DHT22;49822;41.468;13.560;2022-12-01T02:04:14;5.70;78.50
63317;DHT22;49822;41.468;13.560;2022-12-01T02:06:42;5.30;79.20
63317;DHT22;49822;41.468;13.560;2022-12-01T02:09:11;5.00;80.70
63317;DHT22;49822;41.468;13.560;2022-12-01T02:17:39;4.80;82.70
63317;DHT22;49822;41.468;13.560;2022-12-01T02:31:28;5.30;81.30
63317;DHT22;49822;41.468;13.560;2022-12-01T02:34:13;5.00;80.70
63317;DHT22;49822;41.468;13.560;2022-12-01T02:36:46;4.70;82.00
63317;DHT22;49822;41.468;13.560;2022-12-01T02:39:28;4.60;83.60
63317;DHT22;49822;41.468;13.560;2022-12-01T02:42:16;4.70;83.90
63317;DHT22;49822;41.468;13.560;2022-12-01T02:45:10;4.90;83.70
63317;DHT22;49822;41.468;13.560;2022-12-01T02:47:41;4.70;82.30
63317;DHT22;49822;41.468;13.560;2022-12-01T02:50:10;4.80;82.90
63317;DHT22;49822;41.468;13.560;2022-12-01T02:52:39;4.50;81.90
63317;DHT22;49822;41.468;13.560;2022-12-01T02:55:08;4.30;83.30
63317;DHT22;49822;41.468;13.560;2022-12-01T02:57:35;4.30;83.80
63317;DHT22;49822;41.468;13.560;2022-12-01T03:00:04;4.50;84.60
63317;DHT22;49822;41.468;13.560;2022-12-01T03:05:50;4.90;83.30
63317;DHT22;49822;41.468;13.560;2022-12-01T03:08:21;5.00;83.40
63317;DHT22;49822;41.468;13.560;2022-12-01T03:13:43;4.80;80.50
63317;DHT22;49822;41.468;13.560;2022-12-01T03:19:38;4.60;83.10
63317;DHT22;49822;41.468;13.560;2022-12-01T03:22:09;4.70;83.40
63317;DHT22;49822;41.468;13.560;2022-12-01T03:24:38;4.90;83.20
63317;DHT22;49822;41.468;13.560;2022-12-01T03:27:08;5.00;82.50
63317;DHT22;49822;41.468;13.560;2022-12-01T03:29:46;5.10;82.10
63317;DHT22;49822;41.468;13.560;2022-12-01T03:35:03;4.50;81.60
63317;DHT22;49822;41.468;13.560;2022-12-01T03:37:54;4.60;82.80
63317;DHT22;49822;41.468;13.560;2022-12-01T03:40:25;4.70;83.30
63317;DHT22;49822;41.468;13.560;2022-12-01T03:42:58;4.90;83.10
63317;DHT22;49822;41.468;13.560;2022-12-01T03:48:24;5.00;81.40
63317;DHT22;49822;41.468;13.560;2022-12-01T03:51:04;4.70;81.40
63317;DHT22;49822;41.468;13.560;2022-12-01T03:53:59;4.50;80.00
63317;DHT22;49822;41.468;13.560;2022-12-01T03:56:39;4.20;82.40
63317;DHT22;49822;41.468;13.560;2022-12-01T03:59:10;4.30;83.50
63317;DHT22;49822;41.468;13.560;2022-12-01T04:01:38;4.50;83.40
63317;DHT22;49822;41.468;13.560;2022-12-01T04:04:09;4.50;82.60
63317;DHT22;49822;41.468;13.560;2022-12-01T04:06:39;4.50;82.70
63317;DHT22;49822;41.468;13.560;2022-12-01T04:09:08;4.50;81.50
63317;DHT22;49822;41.468;13.560;2022-12-01T04:11:35;3.90;81.30
63317;DHT22;49822;41.468;13.560;2022-12-01T04:14:21;3.60;84.00
63317;DHT22;49822;41.468;13.560;2022-12-01T04:16:50;3.60;85.00
63317;DHT22;49822;41.468;13.560;2022-12-01T04:19:17;3.70;85.90
63317;DHT22;49822;41.468;13.560;2022-12-01T04:21:44;3.90;85.70
63317;DHT22;49822;41.468;13.560;2022-12-01T04:24:12;4.00;86.20
63317;DHT22;49822;41.468;13.560;2022-12-01T04:26:40;4.00;84.30
63317;DHT22;49822;41.468;13.560;2022-12-01T04:29:10;3.60;84.00
63317;DHT22;49822;41.468;13.560;2022-12-01T04:31:38;3.50;85.50
63317;DHT22;49822;41.468;13.560;2022-12-01T04:34:06;3.70;86.50
63317;DHT22;49822;41.468;13.560;2022-12-01T04:36:34;3.90;86.90
63317;DHT22;49822;41.468;13.560;2022-12-01T04:39:02;4.10;86.20
63317;DHT22;49822;41.468;13.560;2022-12-01T04:41:30;3.70;83.50
63317;DHT22;49822;41.468;13.560;2022-12-01T04:43:58;3.30;85.30
63317;DHT22;49822;41.468;13.560;2022-12-01T04:46:25;3.50;87.20
63317;DHT22;49822;41.468;13.560;2022-12-01T04:48:53;3.60;87.80
63317;DHT22;49822;41.468;13.560;2022-12-01T04:51:21;3.70;86.60
63317;DHT22;49822;41.468;13.560;2022-12-01T04:53:49;3.60;86.30
63317;DHT22;49822;41.468;13.560;2022-12-01T04:56:17;3.60;86.40
63317;DHT22;49822;41.468;13.560;2022-12-01T04:58:45;3.70;86.10
63317;DHT22;49822;41.468;13.560;2022-12-01T05:01:15;3.90;86.80
63317;DHT22;49822;41.468;13.560;2022-12-01T05:03:45;4.00;86.80
63317;DHT22;49822;41.468;13.560;2022-12-01T05:06:17;4.00;85.50
63317;DHT22;49822;41.468;13.560;2022-12-01T05:08:46;4.10;85.40
63317;DHT22;49822;41.468;13.560;2022-12-01T05:11:14;4.20;85.10
63317;DHT22;49822;41.468;13.560;2022-12-01T05:13:44;4.40;84.70
63317;DHT22;49822;41.468;13.560;2022-12-01T05:16:15;4.40;84.50
63317;DHT22;49822;41.468;13.560;2022-12-01T05:18:53;4.50;83.70
63317;DHT22;49822;41.468;13.560;2022-12-01T05:21:41;4.40;82.80
63317;DHT22;49822;41.468;13.560;2022-12-01T05:24:09;4.40;83.50
63317;DHT22;49822;41.468;13.560;2022-12-01T05:26:38;4.40;83.70
63317;DHT22;49822;41.468;13.560;2022-12-01T05:29:06;4.40;83.40
63317;DHT22;49822;41.468;13.560;2022-12-01T05:31:36;4.50;83.60
63317;DHT22;49822;41.468;13.560;2022-12-01T05:34:06;4.50;83.30
63317;DHT22;49822;41.468;13.560;2022-12-01T05:36:34;4.50;83.10
63317;DHT22;49822;41.468;13.560;2022-12-01T05:39:03;4.50;83.00
63317;DHT22;49822;41.468;13.560;2022-12-01T05:41:31;4.50;82.80
63317;DHT22;49822;41.468;13.560;2022-12-01T05:43:59;4.10;80.80
63317;DHT22;49822;41.468;13.560;2022-12-01T05:46:28;3.80;82.60
63317;DHT22;49822;41.468;13.560;2022-12-01T05:48:56;3.50;85.20
63317;DHT22;49822;41.468;13.560;2022-12-01T05:51:25;3.30;87.00
63317;DHT22;49822;41.468;13.560;2022-12-01T05:53:52;3.60;88.10
63317;DHT22;49822;41.468;13.560;2022-12-01T05:56:20;3.80;88.30
63317;DHT22;49822;41.468;13.560;2022-12-01T05:58:47;3.90;87.20
63317;DHT22;49822;41.468;13.560;2022-12-01T06:01:15;4.00;86.90
63317;DHT22;49822;41.468;13.560;2022-12-01T06:03:42;4.20;86.10
63317;DHT22;49822;41.468;13.560;2022-12-01T06:06:10;4.10;84.60
63317;DHT22;49822;41.468;13.560;2022-12-01T06:08:37;3.70;83.40
63317;DHT22;49822;41.468;13.560;2022-12-01T06:11:05;3.30;85.10
63317;DHT22;49822;41.468;13.560;2022-12-01T06:13:33;3.30;87.10
63317;DHT22;49822;41.468;13.560;2022-12-01T06:16:02;3.50;88.00
63317;DHT22;49822;41.468;13.560;2022-12-01T06:18:32;3.70;88.10
63317;DHT22;49822;41.468;13.560;2022-12-01T06:21:01;3.90;87.30
63317;DHT22;49822;41.468;13.560;2022-12-01T06:23:28;3.90;86.20
63317;DHT22;49822;41.468;13.560;2022-12-01T06:25:57;4.00;85.50
63317;DHT22;49822;41.468;13.560;2022-12-01T06:28:25;4.00;85.10
63317;DHT22;49822;41.468;13.560;2022-12-01T06:30:53;4.10;84.20
63317;DHT22;49822;41.468;13.560;2022-12-01T06:33:29;3.90;83.20
63317;DHT22;49822;41.468;13.560;2022-12-01T06:38:29;3.20;86.10
63317;DHT22;49822;41.468;13.560;2022-12-01T06:40:57;3.40;87.80
63317;DHT22;49822;41.468;13.560;2022-12-01T06:43:25;3.70;87.90
63317;DHT22;49822;41.468;13.560;2022-12-01T06:45:54;3.90;86.60
63317;DHT22;49822;41.468;13.560;2022-12-01T06:48:29;4.00;86.40
63317;DHT22;49822;41.468;13.560;2022-12-01T06:50:58;4.10;84.90
63317;DHT22;49822;41.468;13.560;2022-12-01T06:53:27;4.30;85.00
63317;DHT22;49822;41.468;13.560;2022-12-01T06:56:02;4.30;84.30
63317;DHT22;49822;41.468;13.560;2022-12-01T06:58:31;4.30;84.10
63317;DHT22;49822;41.468;13.560;2022-12-01T07:00:59;4.50;83.80
63317;DHT22;49822;41.468;13.560;2022-12-01T07:03:27;4.50;82.40
63317;DHT22;49822;41.468;13.560;2022-12-01T07:05:57;4.30;82.90
63317;DHT22;49822;41.468;13.560;2022-12-01T07:08:26;4.50;83.70
63317;DHT22;49822;41.468;13.560;2022-12-01T07:11:03;4.50;82.30
63317;DHT22;49822;41.468;13.560;2022-12-01T07:13:31;4.50;82.90
63317;DHT22;49822;41.468;13.560;2022-12-01T07:16:01;4.70;83.30
63317;DHT22;49822;41.468;13.560;2022-12-01T07:18:29;4.80;82.80
63317;DHT22;49822;41.468;13.560;2022-12-01T07:21:01;4.90;82.40
63317;DHT22;49822;41.468;13.560;2022-12-01T07:23:29;5.00;82.40
63317;DHT22;49822;41.468;13.560;2022-12-01T07:26:02;5.10;82.50
63317;DHT22;49822;41.468;13.560;2022-12-01T07:28:30;5.30;81.70
63317;DHT22;49822;41.468;13.560;2022-12-01T07:31:09;5.40;81.00
63317;DHT22;49822;41.468;13.560;2022-12-01T07:33:38;5.60;80.50
63317;DHT22;49822;41.468;13.560;2022-12-01T07:36:06;5.70;78.70
63317;DHT22;49822;41.468;13.560;2022-12-01T07:38:34;5.80;79.50
63317;DHT22;49822;41.468;13.560;2022-12-01T07:41:16;5.90;80.00
63317;DHT22;49822;41.468;13.560;2022-12-01T07:43:49;6.00;79.80
63317;DHT22;49822;41.468;13.560;2022-12-01T07:46:20;5.90;79.00
63317;DHT22;49822;41.468;13.560;2022-12-01T07:48:51;5.90;80.40
63317;DHT22;49822;41.468;13.560;2022-12-01T07:51:19;6.00;80.20
63317;DHT22;49822;41.468;13.560;2022-12-01T07:53:47;5.70;78.00
63317;DHT22;49822;41.468;13.560;2022-12-01T07:56:17;5.30;80.20
63317;DHT22;49822;41.468;13.560;2022-12-01T07:58:46;5.40;81.60
63317;DHT22;49822;41.468;13.560;2022-12-01T08:01:16;5.80;83.30
63317;DHT22;49822;41.468;13.560;2022-12-01T08:03:44;6.40;82.00
63317;DHT22;49822;41.468;13.560;2022-12-01T08:06:12;6.90;80.00
63317;DHT22;49822;41.468;13.560;2022-12-01T08:08:40;7.20;78.90
63317;DHT22;49822;41.468;13.560;2022-12-01T08:11:16;7.50;78.00
63317;DHT22;49822;41.468;13.560;2022-12-01T08:13:44;7.70;77.30
63317;DHT22;49822;41.468;13.560;2022-12-01T08:16:13;7.80;77.20
63317;DHT22;49822;41.468;13.560;2022-12-01T08:18:42;8.00;75.20
63317;DHT22;49822;41.468;13.560;2022-12-01T08:21:15;7.90;75.50
63317;DHT22;49822;41.468;13.560;2022-12-01T08:23:43;8.00;76.20
63317;DHT22;49822;41.468;13.560;2022-12-01T08:26:16;8.10;74.80
63317;DHT22;49822;41.468;13.560;2022-12-01T08:28:45;8.30;74.20
63317;DHT22;49822;41.468;13.560;2022-12-01T08:31:18;8.60;72.30
63317;DHT22;49822;41.468;13.560;2022-12-01T08:33:48;8.90;71.40
63317;DHT22;49822;41.468;13.560;2022-12-01T08:36:17;8.90;70.90
63317;DHT22;49822;41.468;13.560;2022-12-01T08:38:46;8.70;71.50
63317;DHT22;49822;41.468;13.560;2022-12-01T08:41:14;8.60;72.90
63317;DHT22;49822;41.468;13.560;2022-12-01T08:43:42;8.60;73.30
63317;DHT22;49822;41.468;13.560;2022-12-01T08:46:32;8.60;72.90
63317;DHT22;49822;41.468;13.560;2022-12-01T08:49:02;8.80;73.00
63317;DHT22;49822;41.468;13.560;2022-12-01T08:51:31;8.90;72.70
63317;DHT22;49822;41.468;13.560;2022-12-01T08:53:58;8.90;72.40
63317;DHT22;49822;41.468;13.560;2022-12-01T08:56:35;9.00;71.70
63317;DHT22;49822;41.468;13.560;2022-12-01T08:59:03;9.10;71.70
63317;DHT22;49822;41.468;13.560;2022-12-01T09:01:31;9.40;71.90
63317;DHT22;49822;41.468;13.560;2022-12-01T09:04:01;9.70;70.90
63317;DHT22;49822;41.468;13.560;2022-12-01T09:06:43;10.20;68.50
63317;DHT22;49822;41.468;13.560;2022-12-01T09:09:27;10.80;66.80
63317;DHT22;49822;41.468;13.560;2022-12-01T09:11:55;11.70;62.70
63317;DHT22;49822;41.468;13.560;2022-12-01T09:14:23;13.30;59.50
63317;DHT22;49822;41.468;13.560;2022-12-01T09:16:50;15.30;55.00
63317;DHT22;49822;41.468;13.560;2022-12-01T09:19:18;17.50;48.00
63317;DHT22;49822;41.468;13.560;2022-12-01T09:21:51;18.80;44.80
63317;DHT22;49822;41.468;13.560;2022-12-01T09:24:18;20.00;41.10
63317;DHT22;49822;41.468;13.560;2022-12-01T09:26:46;19.90;40.30
63317;DHT22;49822;41.468;13.560;2022-12-01T09:29:15;20.90;39.10
63317;DHT22;49822;41.468;13.560;2022-12-01T09:31:43;21.10;37.80
63317;DHT22;49822;41.468;13.560;2022-12-01T09:34:15;21.30;39.00
63317;DHT22;49822;41.468;13.560;2022-12-01T09:36:44;21.50;37.50
63317;DHT22;49822;41.468;13.560;2022-12-01T09:39:19;21.90;36.90
63317;DHT22;49822;41.468;13.560;2022-12-01T09:41:48;22.60;34.90
63317;DHT22;49822;41.468;13.560;2022-12-01T09:44:33;23.30;33.50
63317;DHT22;49822;41.468;13.560;2022-12-01T09:47:22;23.90;32.30
63317;DHT22;49822;41.468;13.560;2022-12-01T09:50:06;23.90;32.30
63317;DHT22;49822;41.468;13.560;2022-12-01T09:52:47;24.20;31.40
63317;DHT22;49822;41.468;13.560;2022-12-01T09:55:17;24.00;31.50
63317;DHT22;49822;41.468;13.560;2022-12-01T09:57:51;24.20;32.20
63317;DHT22;49822;41.468;13.560;2022-12-01T10:00:23;23.20;33.20
63317;DHT22;49822;41.468;13.560;2022-12-01T10:05:34;23.50;32.90
63317;DHT22;49822;41.468;13.560;2022-12-01T10:08:15;24.00;33.00
63317;DHT22;49822;41.468;13.560;2022-12-01T10:10:55;23.60;32.80
63317;DHT22;49822;41.468;13.560;2022-12-01T10:13:25;24.00;31.90
63317;DHT22;49822;41.468;13.560;2022-12-01T10:21:11;26.00;30.80
63317;DHT22;49822;41.468;13.560;2022-12-01T10:24:37;25.80;30.70
63317;DHT22;49822;41.468;13.560;2022-12-01T10:32:25;25.70;29.90
63317;DHT22;49822;41.468;13.560;2022-12-01T10:34:59;25.80;30.10
63317;DHT22;49822;41.468;13.560;2022-12-01T10:37:28;25.40;30.40
63317;DHT22;49822;41.468;13.560;2022-12-01T10:39:57;25.60;29.90
63317;DHT22;49822;41.468;13.560;2022-12-01T10:42:33;26.40;29.80
63317;DHT22;49822;41.468;13.560;2022-12-01T10:45:13;26.90;29.50
63317;DHT22;49822;41.468;13.560;2022-12-01T10:48:16;25.80;30.60
63317;DHT22;49822;41.468;13.560;2022-12-01T10:50:50;26.10;29.40
63317;DHT22;49822;41.468;13.560;2022-12-01T10:53:29;26.10;29.80
63317;DHT22;49822;41.468;13.560;2022-12-01T10:58:56;26.70;29.60
63317;DHT22;49822;41.468;13.560;2022-12-01T11:01:27;26.50;29.50
63317;DHT22;49822;41.468;13.560;2022-12-01T11:04:06;26.10;29.40
63317;DHT22;49822;41.468;13.560;2022-12-01T11:06:34;23.80;30.30
63317;DHT22;49822;41.468;13.560;2022-12-01T11:09:05;22.40;34.00
63317;DHT22;49822;41.468;13.560;2022-12-01T11:11:38;21.70;35.30
63317;DHT22;49822;41.468;13.560;2022-12-01T11:14:17;21.10;35.30
63317;DHT22;49822;41.468;13.560;2022-12-01T11:16:48;20.30;35.80
63317;DHT22;49822;41.468;13.560;2022-12-01T11:19:34;20.30;38.00
63317;DHT22;49822;41.468;13.560;2022-12-01T11:22:22;20.50;37.50
63317;DHT22;49822;41.468;13.560;2022-12-01T11:27:21;18.80;39.10
63317;DHT22;49822;41.468;13.560;2022-12-01T11:29:51;18.10;41.20
63317;DHT22;49822;41.468;13.560;2022-12-01T11:32:29;18.20;41.70
63317;DHT22;49822;41.468;13.560;2022-12-01T11:37:44;18.30;43.40
63317;DHT22;49822;41.468;13.560;2022-12-01T11:40:32;18.50;42.10
63317;DHT22;49822;41.468;13.560;2022-12-01T11:43:04;18.60;41.60
63317;DHT22;49822;41.468;13.560;2022-12-01T11:45:39;18.50;43.10
63317;DHT22;49822;41.468;13.560;2022-12-01T11:50:44;18.40;42.10
63317;DHT22;49822;41.468;13.560;2022-12-01T11:53:28;18.40;42.60
63317;DHT22;49822;41.468;13.560;2022-12-01T11:56:17;18.20;42.10
63317;DHT22;49822;41.468;13.560;2022-12-01T11:58:47;17.50;43.50
63317;DHT22;49822;41.468;13.560;2022-12-01T12:22:33;18.10;42.50
63317;DHT22;49822;41.468;13.560;2022-12-01T12:25:04;18.30;43.60
63317;DHT22;49822;41.468;13.560;2022-12-01T12:30:28;18.00;43.50
63317;DHT22;49822;41.468;13.560;2022-12-01T12:33:24;18.00;45.00
63317;DHT22;49822;41.468;13.560;2022-12-01T12:50:05;18.30;44.20
63317;DHT22;49822;41.468;13.560;2022-12-01T12:52:42;18.50;44.10
63317;DHT22;49822;41.468;13.560;2022-12-01T12:58:24;18.90;42.20
63317;DHT22;49822;41.468;13.560;2022-12-01T13:01:21;19.10;42.20
63317;DHT22;49822;41.468;13.560;2022-12-01T13:03:56;19.00;41.90
63317;DHT22;49822;41.468;13.560;2022-12-01T13:06:36;18.40;43.00
63317;DHT22;49822;41.468;13.560;2022-12-01T13:09:15;17.60;44.30
63317;DHT22;49822;41.468;13.560;2022-12-01T13:14:35;17.80;45.60
63317;DHT22;49822;41.468;13.560;2022-12-01T13:19:54;18.40;42.70
63317;DHT22;49822;41.468;13.560;2022-12-01T13:22:28;18.50;43.90
63317;DHT22;49822;41.468;13.560;2022-12-01T13:24:56;19.20;45.30
63317;DHT22;49822;41.468;13.560;2022-12-01T13:27:26;20.00;42.60
63317;DHT22;49822;41.468;13.560;2022-12-01T13:29:56;20.60;41.20
63317;DHT22;49822;41.468;13.560;2022-12-01T13:32:38;20.70;40.40
63317;DHT22;49822;41.468;13.560;2022-12-01T13:35:28;20.80;41.60
63317;DHT22;49822;41.468;13.560;2022-12-01T13:44:24;19.70;40.40
63317;DHT22;49822;41.468;13.560;2022-12-01T13:49:33;16.40;46.40
63317;DHT22;49822;41.468;13.560;2022-12-01T14:00:34;18.10;47.80
63317;DHT22;49822;41.468;13.560;2022-12-01T14:05:54;18.00;47.80
63317;DHT22;49822;41.468;13.560;2022-12-01T14:08:28;18.80;46.20
63317;DHT22;49822;41.468;13.560;2022-12-01T14:11:17;20.00;44.00
63317;DHT22;49822;41.468;13.560;2022-12-01T14:16:20;20.00;44.20
63317;DHT22;49822;41.468;13.560;2022-12-01T14:18:53;19.50;46.80
63317;DHT22;49822;41.468;13.560;2022-12-01T14:21:45;19.30;45.80
63317;DHT22;49822;41.468;13.560;2022-12-01T14:24:40;19.50;45.50
63317;DHT22;49822;41.468;13.560;2022-12-01T14:27:08;18.90;46.00
63317;DHT22;49822;41.468;13.560;2022-12-01T14:29:40;19.00;46.00
63317;DHT22;49822;41.468;13.560;2022-12-01T14:34:37;17.30;47.50
63317;DHT22;49822;41.468;13.560;2022-12-01T14:37:07;15.60;50.80
63317;DHT22;49822;41.468;13.560;2022-12-01T14:39:51;15.00;52.70
63317;DHT22;49822;41.468;13.560;2022-12-01T14:42:31;14.80;52.70
63317;DHT22;49822;41.468;13.560;2022-12-01T14:45:44;14.40;56.50
63317;DHT22;49822;41.468;13.560;2022-12-01T14:48:25;14.60;57.70
63317;DHT22;49822;41.468;13.560;2022-12-01T14:53:42;13.10;57.70
63317;DHT22;49822;41.468;13.560;2022-12-01T14:56:17;12.30;61.60
63317;DHT22;49822;41.468;13.560;2022-12-01T14:58:58;12.20;62.90
63317;DHT22;49822;41.468;13.560;2022-12-01T15:01:35;12.50;63.40
63317;DHT22;49822;41.468;13.560;2022-12-01T15:04:04;12.70;61.80
63317;DHT22;49822;41.468;13.560;2022-12-01T15:06:34;12.50;63.40
63317;DHT22;49822;41.468;13.560;2022-12-01T15:09:16;12.60;62.80
63317;DHT22;49822;41.468;13.560;2022-12-01T15:12:03;12.70;63.70
63317;DHT22;49822;41.468;13.560;2022-12-01T15:14:45;12.80;64.00
63317;DHT22;49822;41.468;13.560;2022-12-01T15:17:33;12.80;64.10
63317;DHT22;49822;41.468;13.560;2022-12-01T15:20:29;12.70;64.00
63317;DHT22;49822;41.468;13.560;2022-12-01T15:22:58;12.50;64.60
63317;DHT22;49822;41.468;13.560;2022-12-01T15:25:31;12.50;65.80
63317;DHT22;49822;41.468;13.560;2022-12-01T15:30:42;12.10;65.50
63317;DHT22;49822;41.468;13.560;2022-12-01T15:33:20;11.90;65.90
63317;DHT22;49822;41.468;13.560;2022-12-01T15:35:54;11.70;66.60
63317;DHT22;49822;41.468;13.560;2022-12-01T15:38:29;11.60;67.00
63317;DHT22;49822;41.468;13.560;2022-12-01T15:40:58;11.50;67.20
63317;DHT22;49822;41.468;13.560;2022-12-01T15:43:59;11.50;66.20
63317;DHT22;49822;41.468;13.560;2022-12-01T15:46:32;11.10;68.20
63317;DHT22;49822;41.468;13.560;2022-12-01T15:49:14;11.10;68.70
63317;DHT22;49822;41.468;13.560;2022-12-01T15:51:42;10.80;67.90
63317;DHT22;49822;41.468;13.560;2022-12-01T15:54:28;10.70;70.10
63317;DHT22;49822;41.468;13.560;2022-12-01T15:56:57;10.60;70.00
63317;DHT22;49822;41.468;13.560;2022-12-01T15:59:32;10.40;70.10
63317;DHT22;49822;41.468;13.560;2022-12-01T16:02:28;10.30;70.70
63317;DHT22;49822;41.468;13.560;2022-12-01T16:05:16;10.60;69.40
63317;DHT22;49822;41.468;13.560;2022-12-01T16:07:44;10.80;69.60
63317;DHT22;49822;41.468;13.560;2022-12-01T16:10:35;10.80;69.10
63317;DHT22;49822;41.468;13.560;2022-12-01T16:21:22;10.60;70.30
63317;DHT22;49822;41.468;13.560;2022-12-01T16:23:59;10.40;70.90
63317;DHT22;49822;41.468;13.560;2022-12-01T16:26:27;10.30;71.20
63317;DHT22;49822;41.468;13.560;2022-12-01T16:28:56;10.00;71.80
63317;DHT22;49822;41.468;13.560;2022-12-01T16:31:25;9.90;72.40
63317;DHT22;49822;41.468;13.560;2022-12-01T16:34:02;9.80;72.70
63317;DHT22;49822;41.468;13.560;2022-12-01T16:36:49;9.80;72.70
63317;DHT22;49822;41.468;13.560;2022-12-01T16:39:17;9.80;73.00
63317;DHT22;49822;41.468;13.560;2022-12-01T16:41:44;9.80;72.80
63317;DHT22;49822;41.468;13.560;2022-12-01T16:44:14;9.80;72.70
63317;DHT22;49822;41.468;13.560;2022-12-01T16:46:57;9.80;72.40
63317;DHT22;49822;41.468;13.560;2022-12-01T16:49:25;9.70;72.30
63317;DHT22;49822;41.468;13.560;2022-12-01T16:51:53;9.70;72.10
63317;DHT22;49822;41.468;13.560;2022-12-01T16:54:22;9.70;72.60
63317;DHT22;49822;41.468;13.560;2022-12-01T16:56:50;9.60;73.80
63317;DHT22;49822;41.468;13.560;2022-12-01T16:59:17;9.60;74.30
63317;DHT22;49822;41.468;13.560;2022-12-01T17:01:46;9.40;74.40
63317;DHT22;49822;41.468;13.560;2022-12-01T17:04:14;9.40;73.70
63317;DHT22;49822;41.468;13.560;2022-12-01T17:06:42;9.10;74.90
63317;DHT22;49822;41.468;13.560;2022-12-01T17:09:10;8.80;76.20
63317;DHT22;49822;41.468;13.560;2022-12-01T17:11:39;8.60;77.50
63317;DHT22;49822;41.468;13.560;2022-12-01T17:14:07;8.50;78.30
63317;DHT22;49822;41.468;13.560;2022-12-01T17:16:35;9.00;77.10
63317;DHT22;49822;41.468;13.560;2022-12-01T17:19:04;9.30;76.10
63317;DHT22;49822;41.468;13.560;2022-12-01T17:21:33;9.50;75.50
63317;DHT22;49822;41.468;13.560;2022-12-01T17:24:00;9.70;75.40
63317;DHT22;49822;41.468;13.560;2022-12-01T17:26:28;9.70;73.90
63317;DHT22;49822;41.468;13.560;2022-12-01T17:28:55;9.60;73.60
63317;DHT22;49822;41.468;13.560;2022-12-01T17:31:22;9.40;73.50
63317;DHT22;49822;41.468;13.560;2022-12-01T17:33:50;9.20;73.40
63317;DHT22;49822;41.468;13.560;2022-12-01T17:36:18;9.20;75.40
63317;DHT22;49822;41.468;13.560;2022-12-01T17:38:46;9.10;74.80
63317;DHT22;49822;41.468;13.560;2022-12-01T17:41:16;8.90;75.60
63317;DHT22;49822;41.468;13.560;2022-12-01T17:43:44;8.80;75.50
63317;DHT22;49822;41.468;13.560;2022-12-01T17:46:12;8.30;77.40
63317;DHT22;49822;41.468;13.560;2022-12-01T17:48:43;8.30;78.70
63317;DHT22;49822;41.468;13.560;2022-12-01T17:51:12;8.50;78.70
63317;DHT22;49822;41.468;13.560;2022-12-01T17:53:40;8.50;77.60
63317;DHT22;49822;41.468;13.560;2022-12-01T17:56:09;8.10;78.30
63317;DHT22;49822;41.468;13.560;2022-12-01T17:58:37;7.80;80.00
63317;DHT22;49822;41.468;13.560;2022-12-01T18:01:14;7.80;82.10
63317;DHT22;49822;41.468;13.560;2022-12-01T18:03:42;8.20;80.70
63317;DHT22;49822;41.468;13.560;2022-12-01T18:06:11;8.40;79.90
63317;DHT22;49822;41.468;13.560;2022-12-01T18:08:39;8.50;79.40
63317;DHT22;49822;41.468;13.560;2022-12-01T18:11:08;8.60;79.20
63317;DHT22;49822;41.468;13.560;2022-12-01T18:13:38;8.60;78.90
63317;DHT22;49822;41.468;13.560;2022-12-01T18:16:07;8.60;77.60
63317;DHT22;49822;41.468;13.560;2022-12-01T18:18:36;8.60;77.50
63317;DHT22;49822;41.468;13.560;2022-12-01T18:21:08;8.30;77.00
63317;DHT22;49822;41.468;13.560;2022-12-01T18:23:36;8.20;77.10
63317;DHT22;49822;41.468;13.560;2022-12-01T18:26:07;7.80;78.10
63317;DHT22;49822;41.468;13.560;2022-12-01T18:28:42;7.50;80.10
63317;DHT22;49822;41.468;13.560;2022-12-01T18:31:12;7.50;81.30
63317;DHT22;49822;41.468;13.560;2022-12-01T18:33:42;7.60;82.20